createdAt,value
2017-10-11T00:00:51.251Z,6.30
2017-10-11T00:03:18.767Z,7.03
2017-10-11T00:05:47.699Z,6.33
2017-10-11T00:08:15.487Z,6.10
2017-10-11T00:10:42.999Z,7.60
2017-10-11T00:13:10.506Z,7.35
2017-10-11T00:15:38.063Z,6.00
2017-10-11T00:18:06.880Z,6.18
2017-10-11T00:20:35.026Z,5.87
2017-10-11T00:23:06.084Z,6.30
2017-10-11T00:25:33.587Z,6.10
2017-10-11T00:28:01.091Z,5.87
2017-10-11T00:30:28.635Z,6.50
2017-10-11T00:32:56.196Z,5.70
2017-10-11T00:35:24.476Z,6.47
2017-10-11T00:37:55.441Z,6.35
2017-10-11T00:40:22.943Z,5.87
2017-10-11T00:42:50.771Z,5.93
2017-10-11T00:45:18.425Z,6.63
2017-10-11T00:47:45.963Z,5.47
2017-10-11T00:50:14.251Z,5.68
2017-10-11T00:52:42.571Z,5.33
2017-10-11T00:55:10.147Z,5.73
2017-10-11T00:57:37.727Z,5.00
2017-10-11T01:00:05.231Z,5.80
2017-10-11T01:02:32.732Z,5.18
2017-10-11T01:05:00.280Z,5.82
2017-10-11T01:07:31.076Z,5.10
2017-10-11T02:06:15.066Z,4.47
2017-10-11T02:08:46.437Z,4.20
2017-10-11T02:11:14.450Z,4.70
2017-10-11T02:13:41.965Z,4.18
2017-10-11T02:16:09.548Z,4.62
2017-10-11T02:18:37.087Z,3.80
2017-10-11T02:21:04.589Z,3.87
2017-10-11T02:23:32.203Z,4.20
2017-10-11T02:26:00.419Z,4.20
2017-10-11T02:28:27.923Z,4.40
2017-10-11T02:30:55.666Z,4.70
2017-10-11T02:33:23.199Z,4.70
2017-10-11T02:35:50.716Z,5.73
2017-10-11T02:38:19.219Z,3.87
2017-10-11T02:40:47.139Z,3.83
2017-10-11T02:43:22.555Z,5.00
2017-10-11T02:45:50.295Z,4.20
2017-10-11T02:48:17.862Z,4.17
2017-10-11T02:50:46.722Z,4.50
2017-10-11T02:53:14.631Z,4.23
2017-10-11T02:55:42.128Z,4.72
2017-10-11T02:58:09.702Z,5.70
2017-10-11T03:00:37.215Z,5.37
2017-10-11T03:03:04.759Z,5.10
2017-10-11T03:05:32.255Z,4.43
2017-10-11T03:07:59.828Z,4.70
2017-10-11T03:10:27.367Z,4.47
2017-10-11T03:12:55.642Z,6.07
2017-10-11T03:15:23.428Z,4.47
2017-10-11T03:17:50.961Z,5.12
2017-10-11T03:20:19.283Z,5.93
2017-10-11T03:22:48.427Z,5.47
2017-10-11T03:25:19.415Z,5.43
2017-10-11T03:27:48.135Z,5.70
2017-10-11T03:30:16.765Z,6.40
2017-10-11T03:32:44.507Z,6.12
2017-10-11T03:35:13.514Z,5.47
2017-10-11T03:37:41.052Z,5.28
2017-10-11T03:40:08.612Z,5.60
2017-10-11T03:42:37.184Z,5.18
2017-10-11T03:45:04.716Z,6.37
2017-10-11T03:47:32.265Z,5.53
2017-10-11T03:49:59.837Z,6.30
2017-10-11T03:52:27.531Z,6.60
2017-10-11T03:54:55.083Z,6.40
2017-10-11T03:57:22.609Z,6.05
2017-10-11T03:59:50.974Z,5.90
2017-10-11T04:02:18.479Z,5.40
2017-10-11T04:04:45.984Z,5.70
2017-10-11T04:07:14.132Z,7.00
2017-10-11T04:09:41.687Z,6.00
2017-10-11T04:12:09.990Z,7.78
2017-10-11T04:14:37.550Z,7.25
2017-10-11T04:17:05.085Z,7.80
2017-10-11T04:19:32.599Z,6.40
2017-10-11T04:22:00.177Z,6.90
2017-10-11T04:24:27.688Z,6.50
2017-10-11T04:26:55.195Z,7.20
2017-10-11T04:29:22.746Z,7.07
2017-10-11T04:31:50.245Z,7.63
2017-10-11T04:34:19.373Z,7.37
2017-10-11T04:36:47.341Z,6.90
2017-10-11T04:39:14.849Z,6.65
2017-10-11T04:41:46.862Z,6.82
2017-10-11T04:44:14.390Z,6.32
2017-10-11T04:46:43.635Z,7.67
2017-10-11T04:49:11.142Z,7.90
2017-10-11T04:51:39.416Z,8.15
2017-10-11T04:54:08.667Z,7.60
2017-10-11T04:56:36.314Z,9.40
2017-10-11T04:59:03.884Z,7.72
2017-10-11T05:01:31.403Z,7.30
2017-10-11T05:03:59.006Z,7.20
2017-10-11T05:06:27.468Z,7.60
2017-10-11T05:08:54.983Z,7.90
2017-10-11T05:11:22.547Z,7.83
2017-10-11T05:13:50.240Z,7.00
2017-10-11T05:16:17.789Z,7.23
2017-10-11T05:18:46.234Z,7.20
2017-10-11T05:21:13.957Z,7.43
2017-10-11T05:23:41.496Z,7.73
2017-10-11T05:26:09.073Z,7.17
2017-10-11T05:28:36.648Z,7.47
2017-10-11T05:31:04.320Z,6.93
2017-10-11T05:33:31.890Z,6.60
2017-10-11T05:36:00.203Z,7.22
2017-10-11T05:38:28.496Z,7.50
2017-10-11T05:40:56.072Z,8.17
2017-10-11T05:43:24.501Z,7.15
2017-10-11T05:45:52.090Z,7.12
2017-10-11T05:48:19.630Z,7.50
2017-10-11T05:50:47.945Z,7.97
2017-10-11T05:53:15.480Z,7.93
2017-10-11T05:55:44.736Z,6.50
2017-10-11T05:58:12.245Z,7.23
2017-10-11T06:00:39.806Z,8.93
2017-10-11T06:03:07.316Z,8.45
2017-10-11T06:05:34.832Z,8.23
2017-10-11T06:08:02.881Z,8.10
2017-10-11T06:10:30.383Z,7.70
2017-10-11T06:12:57.898Z,8.07
2017-10-11T06:15:25.449Z,8.83
2017-10-11T06:17:52.982Z,9.25
2017-10-11T06:20:20.826Z,7.67
2017-10-11T06:22:48.380Z,8.18
2017-10-11T06:25:16.822Z,8.60
2017-10-11T06:27:47.781Z,7.83
2017-10-11T06:30:15.296Z,8.57
2017-10-11T06:32:42.829Z,9.30
2017-10-11T06:35:10.409Z,8.52
2017-10-11T06:37:37.963Z,9.77
2017-10-11T06:40:07.220Z,8.42
2017-10-11T06:42:34.725Z,6.97
2017-10-11T06:45:02.543Z,8.00
2017-10-11T06:47:35.139Z,7.35
2017-10-11T06:50:02.698Z,6.60
2017-10-11T06:52:31.882Z,7.93
2017-10-11T06:54:59.426Z,7.20
2017-10-11T06:57:26.963Z,7.37
2017-10-11T06:59:56.163Z,5.87
2017-10-11T07:02:24.574Z,7.00
2017-10-11T07:04:52.211Z,6.17
2017-10-11T07:07:20.622Z,5.28
2017-10-11T07:09:48.175Z,6.10
2017-10-11T07:12:15.676Z,7.20
2017-10-11T07:14:43.218Z,5.80
2017-10-11T07:17:10.748Z,5.93
2017-10-11T07:19:38.311Z,5.23
2017-10-11T07:22:05.811Z,5.90
2017-10-11T07:24:33.343Z,5.03
2017-10-11T07:27:01.198Z,5.03
2017-10-11T07:29:29.027Z,5.70
2017-10-11T07:31:56.723Z,5.93
2017-10-11T07:34:24.310Z,6.15
2017-10-11T07:36:51.851Z,5.97
2017-10-11T07:39:19.420Z,5.13
2017-10-11T07:41:46.970Z,4.63
2017-10-11T07:44:14.496Z,5.17
2017-10-11T07:46:43.267Z,5.60
2017-10-11T07:49:11.377Z,4.32
2017-10-11T07:51:38.922Z,4.98
2017-10-11T07:54:07.811Z,5.40
2017-10-11T07:56:35.383Z,6.00
2017-10-11T07:59:02.932Z,4.60
2017-10-11T08:01:30.439Z,4.20
2017-10-11T08:03:57.981Z,5.32
2017-10-11T08:06:25.609Z,4.97
2017-10-11T08:08:53.153Z,4.70
2017-10-11T08:11:20.955Z,4.53
2017-10-11T08:13:48.505Z,4.70
2017-10-11T08:16:16.073Z,4.03
2017-10-11T08:18:43.596Z,4.57
2017-10-11T08:21:11.386Z,4.68
2017-10-11T08:23:39.842Z,4.47
2017-10-11T08:26:08.176Z,4.60
2017-10-11T08:28:35.712Z,5.67
2017-10-11T08:31:03.411Z,5.53
2017-10-11T08:33:30.976Z,4.30
2017-10-11T08:36:00.079Z,4.43
2017-10-11T08:38:27.592Z,6.00
2017-10-11T08:40:55.146Z,4.30
2017-10-11T08:43:23.645Z,5.00
2017-10-11T08:45:51.779Z,3.95
2017-10-11T08:48:22.928Z,4.85
2017-10-11T08:50:50.434Z,5.43
2017-10-11T08:53:20.252Z,3.50
2017-10-11T08:55:47.760Z,4.50
2017-10-11T08:58:15.289Z,3.93
2017-10-11T09:00:47.879Z,4.65
2017-10-11T09:03:15.388Z,3.33
2017-10-11T09:05:43.102Z,3.97
2017-10-11T09:08:10.826Z,4.43
2017-10-11T09:10:39.261Z,3.12
2017-10-11T09:13:06.864Z,3.10
2017-10-11T09:15:34.367Z,3.70
2017-10-11T09:18:06.526Z,3.72
2017-10-11T09:20:34.030Z,3.70
2017-10-11T09:23:01.876Z,3.75
2017-10-11T09:25:29.431Z,3.60
2017-10-11T09:27:57.914Z,4.27
2017-10-11T09:30:25.473Z,4.07
2017-10-11T09:32:52.970Z,4.97
2017-10-11T09:35:20.509Z,3.57
2017-10-11T09:37:48.020Z,4.20
2017-10-11T09:40:15.552Z,3.65
2017-10-11T09:42:43.051Z,3.95
2017-10-11T09:45:10.607Z,4.10
2017-10-11T09:47:38.876Z,4.10
2017-10-11T09:50:07.159Z,3.90
2017-10-11T09:52:34.699Z,4.00
2017-10-11T09:55:02.968Z,3.93
2017-10-11T09:57:30.910Z,3.85
2017-10-11T09:59:58.428Z,3.80
2017-10-11T10:02:30.911Z,2.67
2017-10-11T10:04:58.451Z,3.80
2017-10-11T10:07:26.717Z,2.80
2017-10-11T10:09:54.288Z,2.53
2017-10-11T10:12:21.828Z,2.40
2017-10-11T10:14:49.381Z,3.20
2017-10-11T10:17:20.660Z,3.10
2017-10-11T10:19:48.332Z,3.27
2017-10-11T10:22:15.841Z,3.70
2017-10-11T10:24:43.387Z,3.47
2017-10-11T10:27:10.939Z,2.73
2017-10-11T10:29:38.440Z,3.30
2017-10-11T10:32:06.467Z,2.70
2017-10-11T10:34:34.277Z,2.30
2017-10-11T10:37:01.841Z,3.03
2017-10-11T10:39:30.393Z,3.17
2017-10-11T10:41:59.415Z,3.40
2017-10-11T10:44:27.202Z,3.87
2017-10-11T10:46:54.734Z,2.83
2017-10-11T10:49:23.941Z,3.33
2017-10-11T10:51:51.525Z,3.20
2017-10-11T10:54:19.059Z,2.67
2017-10-11T10:56:46.642Z,2.70
2017-10-11T10:59:14.148Z,1.67
2017-10-11T11:01:41.811Z,2.15
2017-10-11T11:04:09.847Z,2.00
2017-10-11T11:06:37.423Z,1.95
2017-10-11T11:09:05.338Z,1.50
2017-10-11T11:11:33.829Z,3.00
2017-10-11T11:14:01.652Z,1.90
2017-10-11T11:16:29.157Z,2.03
2017-10-11T11:19:00.508Z,2.20
2017-10-11T11:21:28.016Z,2.20
2017-10-11T11:23:55.556Z,1.80
2017-10-11T11:26:23.185Z,1.60
2017-10-11T11:28:52.176Z,2.50
2017-10-11T11:31:19.684Z,2.13
2017-10-11T11:33:47.208Z,1.58
2017-10-11T11:36:14.742Z,2.90
2017-10-11T11:38:42.254Z,1.20
2017-10-11T11:41:11.688Z,1.20
2017-10-11T11:43:40.906Z,1.80
2017-10-11T11:46:08.416Z,1.73
2017-10-11T11:48:39.829Z,1.65
2017-10-11T11:51:07.937Z,2.70
2017-10-11T11:53:35.484Z,1.80
2017-10-11T11:56:03.021Z,1.90
2017-10-11T11:58:30.589Z,1.67
2017-10-11T12:00:58.342Z,1.80
2017-10-11T12:03:29.178Z,1.87
2017-10-11T12:05:56.811Z,1.62
2017-10-11T12:08:25.876Z,1.42
2017-10-11T12:10:53.428Z,1.67
2017-10-11T12:13:20.960Z,1.77
2017-10-11T12:15:48.503Z,1.90
2017-10-11T12:18:16.045Z,1.47
2017-10-11T12:20:44.280Z,2.12
2017-10-11T12:23:11.823Z,1.75
2017-10-11T12:25:39.359Z,2.20
2017-10-11T12:28:07.107Z,2.03
2017-10-11T12:30:34.634Z,1.77
2017-10-11T12:33:02.347Z,2.70
2017-10-11T12:35:29.889Z,3.90
2017-10-11T12:37:57.450Z,2.62
2017-10-11T12:40:25.022Z,1.63
2017-10-11T12:42:52.532Z,1.97
2017-10-11T12:45:20.055Z,1.40
2017-10-11T12:47:47.650Z,1.93
2017-10-11T12:50:15.174Z,1.90
2017-10-11T12:52:43.639Z,2.13
2017-10-11T12:55:11.622Z,1.95
2017-10-11T12:57:39.169Z,1.67
2017-10-11T13:00:06.821Z,1.60
2017-10-11T13:02:34.366Z,1.60
2017-10-11T13:05:01.878Z,1.63
2017-10-11T13:07:31.111Z,1.85
2017-10-11T13:09:59.372Z,2.47
2017-10-11T13:12:27.167Z,1.90
2017-10-11T13:14:55.275Z,1.40
2017-10-11T13:17:22.784Z,1.60
2017-10-11T13:19:54.763Z,1.60
2017-10-11T13:22:22.307Z,1.30
2017-10-11T13:24:51.508Z,1.73
2017-10-11T13:27:19.120Z,1.47
2017-10-11T13:29:46.654Z,1.57
2017-10-11T13:32:14.763Z,1.48
2017-10-11T13:34:42.323Z,1.43
2017-10-11T13:37:09.883Z,1.53
2017-10-11T13:39:37.384Z,2.30
2017-10-11T13:42:04.915Z,1.87
2017-10-11T13:44:32.542Z,1.53
2017-10-11T13:47:00.064Z,2.37
2017-10-11T13:49:28.784Z,2.08
2017-10-11T13:51:56.380Z,1.57
2017-10-11T13:54:23.907Z,2.23
2017-10-11T13:56:51.816Z,2.20
2017-10-11T13:59:19.672Z,2.20
2017-10-11T14:01:48.202Z,1.80
2017-10-11T14:04:15.764Z,1.95
2017-10-11T14:06:43.259Z,2.10
2017-10-11T14:09:10.824Z,1.27
2017-10-11T14:11:39.099Z,2.47
2017-10-11T14:14:06.633Z,2.27
2017-10-11T14:16:34.276Z,2.72
2017-10-11T14:19:01.799Z,1.30
2017-10-11T14:21:30.082Z,3.15
2017-10-11T14:23:57.878Z,2.17
2017-10-11T14:26:25.849Z,2.47
2017-10-11T14:28:53.423Z,2.10
2017-10-11T14:31:21.110Z,2.77
2017-10-11T14:33:48.676Z,2.43
2017-10-11T14:36:16.335Z,2.17
2017-10-11T14:38:44.762Z,3.60
2017-10-11T14:41:12.318Z,2.43
2017-10-11T14:43:39.842Z,3.20
2017-10-11T14:46:07.402Z,2.93
2017-10-11T14:48:34.929Z,2.70
2017-10-11T14:51:13.580Z,3.07
2017-10-11T14:53:41.146Z,3.22
2017-10-11T14:56:09.574Z,2.23
2017-10-11T14:58:37.081Z,2.70
2017-10-11T15:01:05.184Z,3.08
2017-10-11T15:03:32.687Z,3.20
2017-10-11T15:06:00.235Z,2.30
2017-10-11T15:08:27.768Z,2.47
2017-10-11T15:10:55.278Z,3.47
2017-10-11T15:13:23.064Z,3.03
2017-10-11T15:15:50.618Z,2.42
2017-10-11T15:18:19.098Z,2.00
2017-10-11T15:20:46.863Z,1.80
2017-10-11T15:23:15.142Z,3.27
2017-10-11T15:25:43.351Z,2.50
2017-10-11T15:28:10.882Z,3.47
2017-10-11T15:30:39.157Z,2.40
2017-10-11T15:33:06.707Z,2.87
2017-10-11T15:35:35.024Z,2.22
2017-10-11T15:38:09.823Z,1.90
2017-10-11T15:40:37.416Z,2.53
2017-10-11T15:43:04.919Z,2.90
2017-10-11T15:45:33.127Z,2.20
2017-10-11T15:48:00.659Z,2.75
2017-10-11T15:50:28.927Z,2.90
2017-10-11T15:52:57.416Z,2.10
2017-10-11T15:55:25.684Z,3.23
2017-10-11T15:57:53.504Z,2.87
2017-10-11T16:00:21.014Z,2.92
2017-10-11T16:02:49.319Z,3.10
2017-10-11T16:05:16.835Z,2.63
2017-10-11T16:07:44.385Z,3.37
2017-10-11T16:10:11.945Z,2.17
2017-10-11T16:12:39.507Z,2.90
2017-10-11T16:15:07.486Z,3.22
2017-10-11T16:20:09.518Z,3.22
2017-10-11T16:22:40.356Z,21.85
2017-10-11T16:25:07.880Z,3.22
2017-10-11T16:27:37.474Z,3.37
2017-10-11T16:30:06.719Z,3.37
2017-10-11T16:32:34.235Z,3.53
2017-10-11T16:35:03.080Z,3.90
2017-10-11T16:37:31.546Z,4.25
2017-10-11T16:39:59.092Z,3.63
2017-10-11T16:42:26.599Z,4.07
2017-10-11T16:44:54.157Z,3.55
2017-10-11T16:47:22.061Z,4.00
2017-10-11T16:49:51.047Z,5.32
2017-10-11T16:52:19.380Z,3.60
2017-10-11T16:54:46.888Z,4.20
2017-10-11T16:57:15.293Z,3.80
2017-10-11T16:59:42.806Z,4.13
2017-10-11T17:02:10.327Z,4.60
2017-10-11T17:04:37.978Z,3.67
2017-10-11T17:07:05.483Z,4.97
2017-10-11T17:09:40.466Z,3.50
2017-10-11T17:12:08.022Z,4.23
2017-10-11T17:14:35.944Z,4.40
2017-10-11T17:17:03.454Z,4.27
2017-10-11T17:19:30.995Z,7.37
2017-10-11T17:22:00.189Z,3.83
2017-10-11T17:24:35.420Z,4.23
2017-10-11T17:27:03.705Z,5.15
2017-10-11T17:29:31.231Z,3.37
2017-10-11T17:31:58.740Z,3.20
2017-10-11T17:34:26.391Z,4.20
2017-10-11T17:36:54.885Z,4.45
2017-10-11T17:39:25.607Z,3.90
2017-10-11T17:41:53.497Z,4.83
2017-10-11T17:44:21.131Z,4.27
2017-10-11T17:46:48.647Z,5.50
2017-10-11T17:49:16.203Z,4.50
2017-10-11T17:51:44.844Z,4.57
2017-10-11T17:54:12.379Z,4.68
2017-10-11T17:56:39.945Z,5.15
2017-10-11T17:59:07.473Z,4.80
2017-10-11T18:01:35.241Z,4.20
2017-10-11T18:04:03.569Z,4.35
2017-10-11T18:06:31.071Z,5.47
2017-10-11T18:08:58.599Z,5.53
2017-10-11T18:11:26.454Z,5.07
2017-10-11T18:13:54.015Z,5.23
2017-10-11T18:16:21.570Z,6.80
2017-10-11T18:18:49.235Z,5.00
2017-10-11T18:21:17.530Z,4.22
2017-10-11T18:23:45.099Z,8.03
2017-10-11T18:26:12.608Z,5.77
2017-10-11T18:28:40.131Z,6.07
2017-10-11T18:31:08.420Z,5.17
2017-10-11T18:33:36.340Z,4.85
2017-10-11T18:36:03.863Z,5.00
2017-10-11T18:38:31.370Z,5.30
2017-10-11T18:40:58.962Z,4.53
2017-10-11T18:43:26.866Z,7.00
2017-10-11T18:45:54.420Z,4.83
2017-10-11T18:48:21.936Z,5.87
2017-10-11T18:50:50.417Z,7.50
2017-10-11T18:53:17.927Z,6.43
2017-10-11T18:55:48.816Z,6.10
2017-10-11T18:58:17.102Z,4.90
2017-10-11T19:00:45.462Z,7.62
2017-10-11T19:03:13.731Z,5.03
2017-10-11T19:05:41.270Z,5.60
2017-10-11T19:08:10.716Z,7.25
2017-10-11T19:10:39.958Z,5.97
2017-10-11T19:13:07.524Z,5.70
2017-10-11T19:15:35.044Z,4.55
2017-10-11T19:18:04.279Z,6.07
2017-10-11T19:20:31.869Z,5.20
2017-10-11T19:22:59.423Z,6.37
2017-10-11T19:25:26.967Z,7.00
2017-10-11T19:28:01.548Z,7.65
2017-10-11T19:30:30.780Z,6.67
2017-10-11T19:32:58.533Z,4.87
2017-10-11T19:35:26.095Z,7.37
2017-10-11T19:37:54.568Z,6.70
2017-10-11T19:40:22.108Z,6.70
2017-10-11T19:42:53.528Z,6.60
2017-10-11T19:45:21.044Z,5.97
2017-10-11T19:47:49.483Z,7.70
2017-10-11T19:50:18.723Z,7.87
2017-10-11T19:52:46.279Z,9.30
2017-10-11T19:55:13.792Z,9.82
2017-10-11T19:57:41.301Z,9.35
2017-10-11T20:00:20.712Z,8.90
2017-10-11T20:02:48.245Z,9.70
2017-10-11T20:05:16.045Z,9.30
2017-10-11T20:07:43.623Z,12.23
2017-10-11T20:10:11.781Z,10.23
2017-10-11T20:12:47.546Z,12.18
2017-10-11T20:15:16.499Z,12.05
2017-10-11T20:17:44.003Z,9.77
2017-10-11T20:20:11.559Z,13.23
2017-10-11T20:22:39.114Z,10.80
2017-10-11T20:25:06.623Z,11.75
2017-10-11T20:27:37.813Z,12.70
2017-10-11T20:30:05.328Z,9.00
2017-10-11T20:32:33.640Z,10.70
2017-10-11T20:35:01.159Z,9.80
2017-10-11T20:37:28.706Z,11.02
2017-10-11T20:39:56.239Z,11.70
2017-10-11T20:42:29.115Z,10.45
2017-10-11T20:44:56.622Z,8.67
2017-10-11T20:47:25.101Z,10.90
2017-10-11T20:49:52.631Z,10.67
2017-10-11T20:52:20.188Z,11.00
2017-10-11T20:54:47.724Z,11.70
2017-10-11T20:57:18.973Z,9.40
2017-10-11T20:59:46.484Z,8.33
2017-10-11T21:02:14.506Z,10.30
2017-10-11T21:04:42.072Z,9.60
2017-10-11T21:07:10.338Z,11.73
2017-10-11T21:09:38.921Z,9.52
2017-10-11T21:12:06.744Z,11.10
2017-10-11T21:14:34.272Z,11.33
2017-10-11T21:17:01.856Z,11.15
2017-10-11T21:19:29.401Z,10.67
2017-10-11T21:21:57.098Z,10.60
2017-10-11T21:24:25.416Z,11.30
2017-10-11T21:26:53.478Z,11.10
2017-10-11T21:29:20.978Z,13.43
2017-10-11T21:31:48.535Z,12.40
2017-10-11T21:34:16.092Z,12.88
2017-10-11T21:36:43.635Z,12.80
2017-10-11T21:39:12.475Z,12.57
2017-10-11T21:41:40.680Z,12.23
2017-10-11T21:44:11.691Z,13.73
2017-10-11T21:46:39.187Z,12.80
2017-10-11T21:49:06.690Z,12.27
2017-10-11T21:51:35.216Z,12.40
2017-10-11T21:54:02.776Z,11.33
2017-10-11T21:56:30.307Z,10.67
2017-10-11T21:58:58.574Z,10.18
2017-10-11T22:01:26.889Z,11.43
2017-10-11T22:03:54.695Z,12.17
2017-10-11T22:06:22.213Z,11.07
2017-10-11T22:08:50.535Z,10.45
2017-10-11T22:11:18.095Z,13.05
2017-10-11T22:13:45.699Z,9.97
2017-10-11T22:16:13.224Z,10.43
2017-10-11T22:18:40.750Z,10.10
2017-10-11T22:21:08.296Z,9.40
2017-10-11T22:23:36.149Z,9.90
2017-10-11T22:26:05.538Z,10.13
2017-10-11T22:28:36.697Z,10.03
2017-10-11T22:31:04.950Z,9.82
2017-10-11T22:33:32.471Z,10.90
2017-10-11T22:36:00.063Z,10.45
2017-10-11T22:38:29.285Z,9.80
2017-10-11T22:40:56.818Z,9.82
2017-10-11T22:43:25.123Z,10.00
2017-10-11T22:45:52.643Z,11.13
2017-10-11T22:48:21.267Z,10.70
2017-10-11T22:50:49.614Z,10.35
2017-10-11T22:53:17.170Z,9.80
2017-10-11T22:55:45.452Z,10.25
2017-10-11T22:58:13.299Z,11.25
2017-10-11T23:00:40.851Z,9.53
2017-10-11T23:03:09.129Z,9.70
2017-10-11T23:05:36.643Z,10.20
2017-10-11T23:08:04.183Z,9.67
2017-10-11T23:10:32.383Z,11.90
2017-10-11T23:12:59.932Z,10.20
2017-10-11T23:15:27.581Z,12.13
2017-10-11T23:17:55.344Z,9.53
2017-10-11T23:20:22.840Z,10.63
2017-10-11T23:22:50.352Z,9.68
2017-10-11T23:25:17.908Z,8.85
2017-10-11T23:27:46.330Z,9.13
2017-10-11T23:30:17.976Z,10.60
2017-10-11T23:32:45.475Z,8.90
2017-10-11T23:35:13.008Z,9.50
2017-10-11T23:37:41.567Z,14.10
2017-10-11T23:40:09.247Z,11.20
2017-10-11T23:42:36.766Z,9.98
2017-10-11T23:45:09.717Z,9.73
2017-10-11T23:47:37.429Z,9.90
2017-10-11T23:50:05.014Z,9.52
2017-10-11T23:52:32.521Z,10.20
2017-10-11T23:55:00.688Z,9.98
2017-10-11T23:57:28.216Z,10.80
2017-10-11T23:59:55.790Z,10.07
